Portada
METAR-TAF:

METAR-TAF

Aeropuertos :

Qurayyat, Arabia Saudita

latitud: 31-24N, longitud: 037-16E, altitud: 509 m

Observación

El informe se hizo hace 1 hora y 0 minutos, a las 08:00 UTC
Viento 16 kt del este
Temperatura 36°C
Humedad 12%
Presión 1011 hPa
Visibilidad 10 km o más
sin nubes por debajo de 1500 m y sin presencia de cumulonimbus.

METAR: OEGT 060800Z 10016KT CAVOK 36/02 Q1011 NOSIG

Hora: 12:00 (09:00 UTC)

Pronóstico

El informe se hizo hace 10 horas y 0 minutos, a las 23:00 UTC
Pronóstico válido del 06 a las 00 UTC al 07 a las 06 UTC
Viento 5 kt del norte
Visibilidad 10 km o más
sin nubes por debajo de 1500 m y sin presencia de cumulonimbus.
Evolucionando progresivamente
del 06 a las 06 UTC al 06 a las 08 UTC
Viento 10 kt del este
Evolucionando progresivamente
del 06 a las 17 UTC al 06 a las 09 UTC
Viento 15 kt del norte-noroeste

TAF: OEGT 052300Z 0600/0706 35005KT CAVOK BECMG 0606/0608 10010KT BECMG 0617/0609 34015KT

Observaciones y pronósticos meteorológicos de más de 4000 aeropuertos (mensajes METAR y TAF).

Los puntos amarillos y rojos representan las estaciones disponibles.

Ponga el ratón en el punto deseado para ver el nombre de la estación.

Haga clic para ver las observaciones y los pronósticos meteorológicos.

Para cambiar el mapa : haga clic en los botones verdes con una cruz de color negro para hacer un zoom, en el botón verde con un guión para alejar o en las flechas verdes para mapas adyacentes.


METAR-TAF: